Terminal Aerodrome Forecast
Issued by NWS Tampa Bay Area, FL

Home | Current Version | Previous Version | Text Only | Print | Product List | Glossary On
Versions: 1 2 3 4 5 6 7 8 9 10 11 12 13 14 15 16 17 18 19 20 21 22 23 24
000
FTUS42 KTBW 231456 AAA
TAFTPA
TAF AMD
KTPA 231456Z 2315/2412 04008KT P6SM SCT025 BKN250
     FM231800 07008KT P6SM VCTS BKN035CB
     FM240100 07005KT P6SM SCT050 OVC100=

USA.gov is the U.S. government's official web portal to all federal, state and local government web resources and services.